Time;durP1;ratioP1;P1;durP2;ratioP2;P2;SDS_P1;SDS_P2;PMS_P1;PMS_P2;Temp;Humidity;BMP_temperature;BMP_pressure;BME280_temperature;BME280_humidity;BME280_pressure;Samples;Min_cycle;Max_cycle;Signal;HPM_P1;HPM_P2
2022/04/22 00:00:10;;;;;;;12.82;11.68;;;;;;;;;;5079470;28;20036;-51
2022/04/22 00:02:36;;;;;;;12.98;12.18;;;;;;;;;;5081849;28;20078;-53
2022/04/22 00:05:02;;;;;;;15.48;14.52;;;;;;;;;;5080428;28;20028;-49
2022/04/22 00:07:28;;;;;;;12.45;11.65;;;;;;;;;;5081524;28;20572;-48
2022/04/22 00:09:55;;;;;;;13.95;13.05;;;;;;;;;;5077911;28;20039;-47
2022/04/22 00:12:20;;;;;;;13.85;12.85;;;;;;;;;;5079484;28;20033;-45
2022/04/22 00:14:45;;;;;;;14.40;13.50;;;;;;;;;;5078780;28;20469;-48
2022/04/22 00:17:11;;;;;;;11.02;10.32;;;;;;;;;;5078038;28;20457;-49
2022/04/22 00:19:36;;;;;;;11.85;11.00;;;;;;;;;;5068661;28;20166;-48
2022/04/22 00:22:01;;;;;;;13.45;12.57;;;;;;;;;;5079997;28;20025;-51
2022/04/22 00:24:27;;;;;;;13.27;12.38;;;;;;;;;;5075623;28;20119;-49
2022/04/22 00:26:52;;;;;;;13.15;12.35;;;;;;;;;;5079079;28;20025;-46
2022/04/22 00:29:18;;;;;;;14.40;13.43;;;;;;;;;;5078708;28;20032;-45
2022/04/22 00:31:43;;;;;;;12.98;12.07;;;;;;;;;;5078571;28;21015;-49
2022/04/22 00:34:08;;;;;;;13.82;12.93;;;;;;;;;;5079662;28;20036;-50
2022/04/22 00:36:34;;;;;;;10.43;9.52;;;;;;;;;;5078378;28;20489;-50
2022/04/22 00:39:01;;;;;;;12.77;11.88;;;;;;;;;;5076580;28;20047;-48
2022/04/22 00:41:27;;;;;;;10.77;10.05;;;;;;;;;;5079225;28;20039;-48
2022/04/22 00:43:53;;;;;;;12.80;12.00;;;;;;;;;;5075511;28;20032;-51
2022/04/22 00:46:19;;;;;;;13.55;12.45;;;;;;;;;;5073369;28;20377;-51
2022/04/22 00:48:44;;;;;;;11.35;10.55;;;;;;;;;;5078740;28;20040;-48
2022/04/22 00:51:11;;;;;;;11.15;10.43;;;;;;;;;;5079748;28;20043;-50
2022/04/22 00:53:39;;;;;;;11.68;10.68;;;;;;;;;;5080958;28;20111;-48
2022/04/22 00:56:07;;;;;;;12.30;11.38;;;;;;;;;;5077464;28;20092;-52
2022/04/22 00:58:36;;;;;;;11.07;10.27;;;;;;;;;;5076394;28;20123;-44
2022/04/22 01:01:02;;;;;;;11.60;10.77;;;;;;;;;;5077686;28;20163;-46
2022/04/22 01:03:30;;;;;;;13.80;12.70;;;;;;;;;;5077498;28;20087;-44
2022/04/22 01:11:32;;;;;;;12.27;11.48;;;;;;;;;;5078885;28;20029;-44
2022/04/22 01:14:01;;;;;;;14.15;13.15;;;;;;;;;;5079094;28;20055;-50
2022/04/22 01:16:26;;;;;;;16.38;14.80;;;;;;;;;;5075246;28;20143;-52
2022/04/22 01:18:52;;;;;;;11.68;10.95;;;;;;;;;;5076767;28;20103;-45
2022/04/22 01:21:18;;;;;;;14.18;13.13;;;;;;;;;;5077789;28;20028;-45
2022/04/22 01:23:44;;;;;;;14.32;13.43;;;;;;;;;;5077706;28;20055;-45
2022/04/22 01:26:09;;;;;;;15.13;14.07;;;;;;;;;;5081574;28;20063;-52
2022/04/22 01:28:35;;;;;;;14.60;13.63;;;;;;;;;;5075904;28;20036;-54
2022/04/22 01:31:01;;;;;;;13.52;12.65;;;;;;;;;;5077913;28;20441;-53
2022/04/22 01:33:26;;;;;;;14.43;13.43;;;;;;;;;;5076021;28;20067;-46
2022/04/22 01:35:51;;;;;;;9.68;8.98;;;;;;;;;;5078983;28;20024;-45
2022/04/22 01:38:17;;;;;;;9.80;9.10;;;;;;;;;;5079078;28;20469;-49
2022/04/22 01:40:42;;;;;;;9.50;8.80;;;;;;;;;;5077639;28;20494;-50
2022/04/22 01:43:08;;;;;;;9.45;8.75;;;;;;;;;;5077878;28;20659;-49
2022/04/22 01:45:34;;;;;;;8.77;8.07;;;;;;;;;;5075606;28;20036;-49
2022/04/22 01:47:59;;;;;;;9.25;8.52;;;;;;;;;;5078234;28;20103;-50
2022/04/22 01:50:24;;;;;;;7.10;6.60;;;;;;;;;;5079411;28;20112;-45
2022/04/22 01:52:50;;;;;;;10.07;9.18;;;;;;;;;;5078516;28;20510;-46
2022/04/22 01:55:15;;;;;;;8.85;8.02;;;;;;;;;;5079716;28;20039;-45
2022/04/22 01:57:41;;;;;;;6.38;5.88;;;;;;;;;;5078808;28;20183;-45
2022/04/22 02:00:07;;;;;;;8.07;7.45;;;;;;;;;;5077738;28;20029;-51
2022/04/22 02:02:33;;;;;;;8.90;6.53;;;;;;;;;;5076747;28;20032;-46
2022/04/22 02:04:59;;;;;;;8.30;7.50;;;;;;;;;;5079917;28;20044;-45
2022/04/22 02:07:24;;;;;;;7.28;6.68;;;;;;;;;;5076235;28;20032;-46
2022/04/22 02:09:49;;;;;;;7.78;7.18;;;;;;;;;;5075647;28;20043;-45
2022/04/22 02:12:15;;;;;;;7.80;7.10;;;;;;;;;;5076921;28;20381;-46
2022/04/22 02:14:40;;;;;;;7.72;6.60;;;;;;;;;;5078043;28;20042;-46
2022/04/22 02:17:05;;;;;;;7.03;6.43;;;;;;;;;;5077461;28;20090;-45
2022/04/22 02:19:31;;;;;;;7.60;6.85;;;;;;;;;;5077784;28;20032;-46
2022/04/22 02:21:57;;;;;;;7.57;6.97;;;;;;;;;;5077222;28;20024;-44
2022/04/22 02:24:22;;;;;;;7.30;6.60;;;;;;;;;;5080104;28;20357;-50
2022/04/22 02:29:31;;;;;;;12.40;7.30;;;;;;;;;;5076147;28;20035;-49
2022/04/22 02:31:56;;;;;;;7.85;7.10;;;;;;;;;;5076461;28;20036;-50
2022/04/22 02:34:23;;;;;;;7.93;7.10;;;;;;;;;;5076207;28;20048;-49
2022/04/22 02:36:50;;;;;;;5.88;5.40;;;;;;;;;;5074302;28;20028;-46
2022/04/22 02:39:16;;;;;;;7.03;6.38;;;;;;;;;;5076277;28;20181;-49
2022/04/22 02:47:10;;;;;;;6.45;5.95;;;;;;;;;;5076677;28;20127;-44
2022/04/22 02:49:35;;;;;;;11.63;7.95;;;;;;;;;;5075164;28;20138;-46
2022/04/22 02:52:01;;;;;;;6.38;5.88;;;;;;;;;;5079657;28;20090;-45
2022/04/22 02:54:30;;;;;;;9.43;8.35;;;;;;;;;;5076501;28;20047;-44
2022/04/22 02:56:56;;;;;;;7.22;6.53;;;;;;;;;;5077388;28;20039;-48
2022/04/22 02:59:22;;;;;;;8.55;6.80;;;;;;;;;;5075753;28;20036;-45
2022/04/22 03:01:48;;;;;;;6.90;6.20;;;;;;;;;;5078044;28;20374;-44
2022/04/22 03:04:15;;;;;;;8.25;7.53;;;;;;;;;;5078702;28;20542;-44
2022/04/22 03:06:40;;;;;;;8.07;7.45;;;;;;;;;;5076034;28;20028;-46
2022/04/22 03:09:06;;;;;;;7.13;6.47;;;;;;;;;;5075636;28;20035;-48
2022/04/22 03:11:31;;;;;;;5.97;5.43;;;;;;;;;;5075437;28;20089;-51
2022/04/22 03:13:57;;;;;;;6.60;6.03;;;;;;;;;;5076746;28;20450;-45
2022/04/22 03:16:26;;;;;;;7.05;6.45;;;;;;;;;;5077163;28;20062;-46
2022/04/22 03:18:52;;;;;;;6.75;6.07;;;;;;;;;;5076659;28;20043;-53
2022/04/22 03:21:18;;;;;;;6.65;5.95;;;;;;;;;;5077727;28;20024;-52
2022/04/22 03:23:44;;;;;;;7.63;6.93;;;;;;;;;;5076519;28;20178;-53
2022/04/22 03:26:09;;;;;;;6.15;5.65;;;;;;;;;;5075114;28;20115;-45
2022/04/22 03:28:35;;;;;;;6.35;5.85;;;;;;;;;;5075423;28;20111;-45
2022/04/22 03:31:00;;;;;;;6.18;5.68;;;;;;;;;;5078029;28;20021;-49
2022/04/22 03:33:25;;;;;;;7.72;6.93;;;;;;;;;;5077312;28;20089;-50
2022/04/22 03:35:51;;;;;;;8.23;6.13;;;;;;;;;;5072374;28;20428;-45
2022/04/22 03:38:20;;;;;;;8.13;7.43;;;;;;;;;;5074764;28;20042;-45
2022/04/22 03:40:52;;;;;;;7.15;5.93;;;;;;;;;;5075887;28;20096;-44
2022/04/22 03:43:19;;;;;;;6.18;5.57;;;;;;;;;;5076608;28;20121;-46
2022/04/22 03:45:45;;;;;;;6.75;6.00;;;;;;;;;;5073782;28;20035;-44
2022/04/22 03:48:11;;;;;;;7.20;6.55;;;;;;;;;;5078525;28;20032;-45
2022/04/22 03:50:37;;;;;;;6.22;5.72;;;;;;;;;;5077385;28;20058;-44
2022/04/22 03:53:04;;;;;;;6.50;5.90;;;;;;;;;;5076656;28;20029;-46
2022/04/22 03:55:29;;;;;;;7.50;6.75;;;;;;;;;;5074020;28;20036;-45
2022/04/22 03:58:13;;;;;;;8.20;7.50;;;;;;;;;;5076873;28;20032;-44
2022/04/22 04:00:51;;;;;;;8.32;5.97;;;;;;;;;;5076166;28;20028;-45
2022/04/22 04:03:21;;;;;;;6.72;6.20;;;;;;;;;;5076607;28;20051;-50
2022/04/22 04:05:49;;;;;;;6.50;5.90;;;;;;;;;;5076569;28;20039;-51
2022/04/22 04:08:19;;;;;;;6.97;6.38;;;;;;;;;;5079764;28;20609;-46
2022/04/22 04:16:14;;;;;;;7.93;7.10;;;;;;;;;;5078522;28;20488;-50
2022/04/22 04:18:40;;;;;;;6.50;5.95;;;;;;;;;;5080070;28;20067;-49
2022/04/22 04:23:52;;;;;;;7.78;6.97;;;;;;;;;;5077821;28;20049;-50
2022/04/22 04:26:21;;;;;;;6.78;6.18;;;;;;;;;;5075082;28;20120;-49
2022/04/22 04:28:47;;;;;;;6.82;6.22;;;;;;;;;;5074429;28;20142;-51
2022/04/22 04:31:13;;;;;;;5.53;5.10;;;;;;;;;;5074097;28;20076;-50
2022/04/22 04:33:40;;;;;;;9.15;8.25;;;;;;;;;;5075950;28;20111;-44
2022/04/22 04:36:09;;;;;;;6.80;6.20;;;;;;;;;;5076975;28;20103;-45
2022/04/22 04:38:40;;;;;;;6.65;6.05;;;;;;;;;;5077014;28;20060;-46
2022/04/22 04:41:08;;;;;;;11.05;6.45;;;;;;;;;;5078632;28;20030;-46
2022/04/22 04:43:34;;;;;;;6.90;6.32;;;;;;;;;;5075047;28;20043;-45
2022/04/22 04:45:59;;;;;;;7.97;7.10;;;;;;;;;;5078127;28;20446;-45
2022/04/22 04:48:25;;;;;;;8.57;7.63;;;;;;;;;;5076049;28;20040;-52
2022/04/22 04:50:51;;;;;;;6.22;5.72;;;;;;;;;;5080057;28;20029;-46
2022/04/22 04:53:17;;;;;;;7.20;6.47;;;;;;;;;;5079114;28;20097;-51
2022/04/22 04:55:44;;;;;;;7.57;6.78;;;;;;;;;;5076966;28;20063;-51
2022/04/22 04:58:10;;;;;;;8.15;7.18;;;;;;;;;;5077254;28;20020;-47
2022/04/22 05:00:35;;;;;;;7.63;6.93;;;;;;;;;;5079260;28;20047;-46
2022/04/22 05:03:01;;;;;;;7.43;6.72;;;;;;;;;;5069492;28;20420;-45
2022/04/22 05:05:27;;;;;;;6.50;5.97;;;;;;;;;;5081932;28;20454;-45
2022/04/22 05:07:58;;;;;;;6.47;5.88;;;;;;;;;;5077469;28;20040;-48
2022/04/22 05:10:26;;;;;;;7.57;6.78;;;;;;;;;;5078981;28;20035;-45
2022/04/22 05:12:53;;;;;;;7.38;5.32;;;;;;;;;;5075582;28;20063;-45
2022/04/22 05:15:19;;;;;;;6.07;5.57;;;;;;;;;;5076384;28;20032;-44
2022/04/22 05:17:46;;;;;;;7.53;6.38;;;;;;;;;;5075138;28;20029;-46
2022/04/22 05:20:14;;;;;;;8.85;6.65;;;;;;;;;;5074692;28;20124;-46
2022/04/22 05:22:40;;;;;;;5.80;5.30;;;;;;;;;;5078398;28;20074;-44
2022/04/22 05:25:07;;;;;;;5.75;5.25;;;;;;;;;;5077198;28;20063;-45
2022/04/22 05:27:33;;;;;;;6.68;5.45;;;;;;;;;;5078272;28;20024;-47
2022/04/22 05:32:47;;;;;;;6.20;5.60;;;;;;;;;;5075464;28;20694;-48
2022/04/22 05:35:13;;;;;;;6.57;5.93;;;;;;;;;;5077354;28;20081;-52
2022/04/22 05:37:49;;;;;;;6.57;5.97;;;;;;;;;;5077181;28;20038;-51
2022/04/22 05:40:17;;;;;;;6.93;6.32;;;;;;;;;;5074834;28;20032;-49
2022/04/22 05:42:43;;;;;;;7.10;6.50;;;;;;;;;;5082192;28;20326;-48
2022/04/22 05:45:11;;;;;;;7.22;6.47;;;;;;;;;;5079174;28;20062;-49
2022/04/22 05:47:37;;;;;;;6.28;5.75;;;;;;;;;;5076814;28;20040;-49
2022/04/22 05:50:04;;;;;;;7.38;6.78;;;;;;;;;;5076406;28;20021;-51
2022/04/22 05:52:32;;;;;;;9.32;7.53;;;;;;;;;;5077385;28;20217;-50
2022/04/22 05:55:02;;;;;;;6.55;5.95;;;;;;;;;;5079707;28;20480;-48
2022/04/22 05:57:28;;;;;;;6.15;5.65;;;;;;;;;;5077264;28;20082;-48
2022/04/22 05:59:54;;;;;;;7.80;7.10;;;;;;;;;;5079697;28;20066;-50
2022/04/22 06:02:20;;;;;;;7.35;6.65;;;;;;;;;;5075915;28;20063;-51
2022/04/22 06:04:46;;;;;;;8.68;7.65;;;;;;;;;;5076122;28;20032;-45
2022/04/22 06:07:12;;;;;;;8.35;7.65;;;;;;;;;;5073133;28;20017;-45
2022/04/22 06:12:21;;;;;;;7.47;6.80;;;;;;;;;;5075453;28;20047;-45
2022/04/22 06:14:46;;;;;;;7.72;7.03;;;;;;;;;;5076983;28;20024;-49
2022/04/22 06:17:12;;;;;;;7.78;7.20;;;;;;;;;;5075273;28;20048;-47
2022/04/22 06:19:38;;;;;;;7.47;6.88;;;;;;;;;;5078098;28;20369;-51
2022/04/22 06:22:04;;;;;;;7.35;6.85;;;;;;;;;;5073359;28;20040;-49
2022/04/22 06:24:29;;;;;;;9.13;8.23;;;;;;;;;;5078758;28;20181;-48
2022/04/22 06:26:55;;;;;;;6.45;5.95;;;;;;;;;;5077597;28;20039;-46
2022/04/22 06:29:21;;;;;;;8.02;7.38;;;;;;;;;;5077561;28;20069;-44
2022/04/22 06:31:47;;;;;;;7.82;7.18;;;;;;;;;;5073347;28;20170;-44
2022/04/22 06:34:12;;;;;;;7.07;6.47;;;;;;;;;;5076430;28;20151;-50
2022/04/22 06:36:38;;;;;;;7.90;6.70;;;;;;;;;;5075031;28;20032;-50
2022/04/22 06:39:04;;;;;;;8.52;6.82;;;;;;;;;;5075916;28;20082;-48
2022/04/22 06:46:58;;;;;;;6.30;5.80;;;;;;;;;;5076054;28;20037;-49
2022/04/22 06:49:23;;;;;;;7.03;6.43;;;;;;;;;;5075320;28;20051;-43
2022/04/22 06:51:50;;;;;;;6.43;5.82;;;;;;;;;;5076380;28;20028;-48
2022/04/22 06:54:15;;;;;;;7.63;6.93;;;;;;;;;;5076069;28;20038;-43
2022/04/22 06:56:41;;;;;;;7.55;6.65;;;;;;;;;;5077145;28;20035;-44
2022/04/22 06:59:08;;;;;;;8.07;7.38;;;;;;;;;;5078694;28;20052;-44
2022/04/22 07:01:34;;;;;;;6.43;5.82;;;;;;;;;;5073681;28;20098;-44
2022/04/22 07:04:00;;;;;;;6.53;5.93;;;;;;;;;;5077848;28;20475;-47
2022/04/22 07:06:26;;;;;;;5.88;5.38;;;;;;;;;;5075121;28;20032;-44
2022/04/22 07:08:52;;;;;;;6.25;5.65;;;;;;;;;;5070432;28;20086;-44
2022/04/22 07:11:26;;;;;;;6.57;5.95;;;;;;;;;;5074607;28;20032;-45
2022/04/22 07:13:52;;;;;;;6.60;6.00;;;;;;;;;;5073447;28;20115;-44
2022/04/22 07:16:18;;;;;;;5.30;4.90;;;;;;;;;;5074844;28;20506;-45
2022/04/22 07:18:43;;;;;;;5.97;5.47;;;;;;;;;;5078452;28;20032;-45
2022/04/22 07:21:09;;;;;;;6.50;5.95;;;;;;;;;;5075013;28;20051;-48
2022/04/22 07:23:35;;;;;;;5.47;5.05;;;;;;;;;;5076331;28;20497;-45
2022/04/22 07:26:02;;;;;;;6.25;5.75;;;;;;;;;;5080971;28;20194;-44
2022/04/22 07:28:28;;;;;;;5.95;5.35;;;;;;;;;;5076164;28;20032;-47
2022/04/22 07:30:56;;;;;;;5.30;4.85;;;;;;;;;;5077878;28;20505;-45
2022/04/22 07:33:21;;;;;;;6.38;5.85;;;;;;;;;;5073957;28;20036;-47
2022/04/22 07:35:47;;;;;;;6.28;5.68;;;;;;;;;;5076830;28;20036;-44
2022/04/22 07:38:12;;;;;;;5.78;5.22;;;;;;;;;;5072854;28;20150;-45
2022/04/22 07:40:40;;;;;;;5.55;5.15;;;;;;;;;;5076216;28;20521;-44
2022/04/22 07:48:35;;;;;;;5.05;4.65;;;;;;;;;;5078417;28;20028;-43
2022/04/22 07:51:01;;;;;;;5.03;4.63;;;;;;;;;;5077157;28;20085;-43
2022/04/22 07:53:26;;;;;;;8.63;7.88;;;;;;;;;;5080557;28;20028;-44
2022/04/22 07:55:51;;;;;;;10.32;9.63;;;;;;;;;;5078731;28;20020;-43
2022/04/22 07:58:17;;;;;;;6.70;6.10;;;;;;;;;;5081225;28;20086;-44
2022/04/22 08:00:47;;;;;;;6.80;6.25;;;;;;;;;;5079092;28;20066;-44
2022/04/22 08:03:15;;;;;;;8.35;7.75;;;;;;;;;;5080169;28;20032;-45
2022/04/22 08:05:40;;;;;;;10.25;9.55;;;;;;;;;;5079214;28;20039;-44
2022/04/22 08:08:07;;;;;;;10.98;10.27;;;;;;;;;;5077642;28;20020;-44
2022/04/22 08:10:35;;;;;;;13.60;12.80;;;;;;;;;;5080359;28;20417;-44
2022/04/22 08:13:03;;;;;;;11.43;10.73;;;;;;;;;;5078646;28;20047;-47
2022/04/22 08:15:29;;;;;;;16.10;14.98;;;;;;;;;;5081982;28;20044;-44
2022/04/22 08:17:55;;;;;;;14.77;13.90;;;;;;;;;;5075598;28;20483;-48
2022/04/22 08:20:20;;;;;;;16.58;15.48;;;;;;;;;;5078443;28;20041;-49
2022/04/22 08:22:45;;;;;;;19.27;17.98;;;;;;;;;;5079732;28;20025;-48
2022/04/22 08:25:14;;;;;;;9.60;9.00;;;;;;;;;;5075445;28;20032;-47
2022/04/22 08:27:40;;;;;;;12.80;12.00;;;;;;;;;;5073968;28;20110;-51
2022/04/22 08:30:07;;;;;;;15.15;14.25;;;;;;;;;;5074067;28;20110;-44
2022/04/22 08:32:32;;;;;;;13.68;12.88;;;;;;;;;;5078750;28;20037;-44
2022/04/22 08:34:58;;;;;;;14.27;13.38;;;;;;;;;;5079820;28;20097;-44
2022/04/22 08:37:23;;;;;;;14.27;13.38;;;;;;;;;;5078699;28;20118;-44
2022/04/22 08:39:48;;;;;;;14.90;13.98;;;;;;;;;;5077523;28;20462;-44
2022/04/22 08:42:14;;;;;;;14.93;14.02;;;;;;;;;;5079514;28;20039;-49
2022/04/22 08:44:40;;;;;;;12.80;12.00;;;;;;;;;;5078881;28;20029;-52
2022/04/22 08:49:58;;;;;;;9.02;8.23;;;;;;;;;;5079154;28;20486;-52
2022/04/22 08:52:34;;;;;;;11.23;10.45;;;;;;;;;;5081251;28;20111;-45
2022/04/22 08:55:02;;;;;;;10.73;9.77;;;;;;;;;;5077497;28;20027;-46
2022/04/22 08:57:30;;;;;;;8.30;7.72;;;;;;;;;;5077592;28;20524;-47
2022/04/22 09:00:01;;;;;;;8.98;8.27;;;;;;;;;;5077395;28;20045;-47
2022/04/22 09:02:27;;;;;;;6.63;6.15;;;;;;;;;;5078803;28;20040;-48
2022/04/22 09:04:52;;;;;;;7.35;6.70;;;;;;;;;;5079375;28;20096;-46
2022/04/22 09:07:19;;;;;;;7.90;7.25;;;;;;;;;;5076941;28;20036;-46
2022/04/22 09:09:50;;;;;;;9.60;8.90;;;;;;;;;;5079094;28;20101;-46
2022/04/22 09:12:26;;;;;;;6.30;5.80;;;;;;;;;;5075879;28;20040;-47
2022/04/22 09:14:53;;;;;;;7.80;7.20;;;;;;;;;;5076821;28;20078;-46
2022/04/22 09:17:26;;;;;;;8.05;7.45;;;;;;;;;;5077741;28;20056;-45
2022/04/22 09:19:53;;;;;;;9.50;8.80;;;;;;;;;;5077865;28;20032;-46
2022/04/22 09:22:20;;;;;;;8.70;8.10;;;;;;;;;;5078240;28;20032;-46
2022/04/22 09:24:48;;;;;;;10.07;9.38;;;;;;;;;;5078044;28;20367;-49
2022/04/22 09:27:13;;;;;;;11.48;10.77;;;;;;;;;;5078135;28;20040;-46
2022/04/22 09:29:43;;;;;;;11.65;10.90;;;;;;;;;;5079986;28;20563;-46
2022/04/22 09:32:11;;;;;;;8.48;7.93;;;;;;;;;;5076904;28;20021;-50
2022/04/22 09:34:39;;;;;;;12.25;11.45;;;;;;;;;;5077539;28;20032;-50
2022/04/22 09:42:50;;;;;;;;;;;;;;;;;;5076490;28;20377;-50
2022/04/22 09:45:16;;;;;;;10.30;9.65;;;;;;;;;;5076454;28;19908;-47
2022/04/22 09:47:42;;;;;;;9.68;9.07;;;;;;;;;;5075596;28;20028;-47
2022/04/22 09:50:12;;;;;;;10.82;10.13;;;;;;;;;;5078353;28;20442;-46
2022/04/22 09:52:43;;;;;;;11.93;11.13;;;;;;;;;;5075650;28;20772;-47
2022/04/22 09:55:10;;;;;;;12.50;11.70;;;;;;;;;;5077816;28;20032;-49
2022/04/22 09:57:56;;;;;;;11.50;10.70;;;;;;;;;;5075530;28;20521;-46
2022/04/22 10:00:26;;;;;;;10.82;10.13;;;;;;;;;;5078795;28;20036;-48
2022/04/22 10:02:53;;;;;;;11.63;10.93;;;;;;;;;;5073632;28;20481;-46
2022/04/22 10:05:20;;;;;;;12.93;12.02;;;;;;;;;;5076093;28;20093;-47
2022/04/22 10:07:50;;;;;;;12.85;12.00;;;;;;;;;;5081569;28;20093;-47
2022/04/22 10:10:17;;;;;;;13.68;12.88;;;;;;;;;;5077423;28;20020;-45
2022/04/22 10:12:43;;;;;;;15.63;14.63;;;;;;;;;;5074110;28;20024;-53
2022/04/22 10:15:10;;;;;;;11.45;10.75;;;;;;;;;;5071187;28;20042;-52
2022/04/22 10:17:38;;;;;;;15.00;14.05;;;;;;;;;;5079106;28;20040;-53
2022/04/22 10:20:06;;;;;;;14.30;13.40;;;;;;;;;;5076843;28;20029;-54
2022/04/22 10:22:33;;;;;;;14.80;13.90;;;;;;;;;;5077739;28;20039;-46
2022/04/22 10:25:01;;;;;;;12.55;11.80;;;;;;;;;;5075231;28;20032;-46
2022/04/22 10:27:32;;;;;;;11.60;10.80;;;;;;;;;;5076653;28;20115;-46
2022/04/22 10:29:59;;;;;;;13.75;12.85;;;;;;;;;;5073457;28;20035;-46
2022/04/22 10:32:25;;;;;;;12.13;11.38;;;;;;;;;;5077449;28;20520;-46
2022/04/22 10:34:57;;;;;;;13.25;12.35;;;;;;;;;;5075675;28;20048;-52
2022/04/22 10:37:27;;;;;;;16.75;15.82;;;;;;;;;;5080455;28;20085;-54
2022/04/22 10:39:54;;;;;;;;;;;;;;;;;;5075887;28;20029;-54
2022/04/22 10:42:28;;;;;;;22.30;21.00;;;;;;;;;;5075306;28;19911;-47
2022/04/22 10:47:42;;;;;;;16.77;15.77;;;;;;;;;;5076358;28;20461;-46
2022/04/22 10:50:26;;;;;;;14.95;14.05;;;;;;;;;;5077456;28;20516;-46
2022/04/22 10:53:03;;;;;;;21.50;20.27;;;;;;;;;;5074104;28;20105;-46
2022/04/22 10:55:34;;;;;;;28.17;26.67;;;;;;;;;;5077109;28;20405;-47
2022/04/22 10:58:12;;;;;;;29.05;27.45;;;;;;;;;;5074090;28;20035;-47
2022/04/22 11:00:41;;;;;;;25.63;24.23;;;;;;;;;;5076006;28;20047;-48
2022/04/22 11:03:31;;;;;;;16.70;15.73;;;;;;;;;;5073541;28;20033;-47
2022/04/22 11:06:01;;;;;;;27.25;25.75;;;;;;;;;;5074133;28;20128;-46
2022/04/22 11:08:32;;;;;;;23.40;21.98;;;;;;;;;;5076897;28;20418;-50
2022/04/22 11:11:01;;;;;;;21.40;20.17;;;;;;;;;;5077450;28;20020;-47
2022/04/22 11:13:45;;;;;;;25.77;24.38;;;;;;;;;;5073368;28;20036;-47
2022/04/22 11:16:20;;;;;;;26.50;25.00;;;;;;;;;;5073764;28;20116;-48
2022/04/22 11:19:09;;;;;;;23.00;21.70;;;;;;;;;;5078552;28;20024;-46
2022/04/22 11:21:37;;;;;;;27.13;25.52;;;;;;;;;;5074071;28;20043;-46
2022/04/22 11:24:09;;;;;;;29.35;27.75;;;;;;;;;;5075261;28;20028;-46
2022/04/22 11:26:35;;;;;;;23.52;22.25;;;;;;;;;;5074196;28;20111;-52
2022/04/22 11:29:06;;;;;;;18.50;17.50;;;;;;;;;;5075364;28;20627;-53
2022/04/22 11:31:34;;;;;;;18.77;17.67;;;;;;;;;;5073594;28;20036;-48
2022/04/22 11:34:06;;;;;;;21.85;20.65;;;;;;;;;;5073904;28;20028;-46
2022/04/22 11:36:45;;;;;;;22.75;21.50;;;;;;;;;;5076934;28;20089;-47
2022/04/22 11:39:15;;;;;;;20.52;19.35;;;;;;;;;;5074872;28;20036;-55
2022/04/22 11:42:01;;;;;;;23.50;22.10;;;;;;;;;;5073055;28;20028;-51
2022/04/22 11:44:29;;;;;;;21.55;20.27;;;;;;;;;;5075147;28;20031;-49
2022/04/22 11:46:55;;;;;;;38.95;36.90;;;;;;;;;;5075845;28;20029;-52
2022/04/22 11:49:21;;;;;;;36.00;34.10;;;;;;;;;;5076588;28;20047;-46
2022/04/22 11:51:53;;;;;;;20.60;19.42;;;;;;;;;;5075815;28;20016;-53
2022/04/22 11:54:24;;;;;;;46.50;44.13;;;;;;;;;;5072926;28;20115;-52
2022/04/22 11:56:50;;;;;;;50.92;48.22;;;;;;;;;;5074891;28;20062;-52
2022/04/22 11:59:22;;;;;;;68.43;64.90;;;;;;;;;;5075825;28;20082;-48
2022/04/22 12:10:00;;;;;;;46.38;43.97;;;;;;;;;;5070139;28;20099;-55
2022/04/22 12:12:31;;;;;;;51.20;48.60;;;;;;;;;;5069985;28;20068;-53
2022/04/22 12:15:03;;;;;;;52.15;49.50;;;;;;;;;;5072301;28;20033;-46
2022/04/22 12:17:29;;;;;;;33.22;31.27;;;;;;;;;;5070743;28;20032;-46
2022/04/22 12:19:55;;;;;;;63.00;59.85;;;;;;;;;;5069413;28;20678;-48
2022/04/22 12:22:22;;;;;;;74.15;70.35;;;;;;;;;;5068603;28;20051;-46
2022/04/22 12:25:07;;;;;;;71.60;68.03;;;;;;;;;;5072221;28;20031;-46
2022/04/22 12:27:33;;;;;;;62.88;59.67;;;;;;;;;;5073882;28;20043;-45
2022/04/22 12:30:10;;;;;;;50.03;47.45;;;;;;;;;;5059344;28;20374;-46
2022/04/22 12:32:37;;;;;;;59.65;56.65;;;;;;;;;;5073438;28;20036;-46
2022/04/22 12:35:13;;;;;;;46.53;44.13;;;;;;;;;;5072839;28;20036;-53
2022/04/22 12:37:52;;;;;;;29.25;27.65;;;;;;;;;;5072775;28;20040;-52
2022/04/22 12:40:19;;;;;;;24.77;23.42;;;;;;;;;;5075639;28;20087;-54
2022/04/22 12:42:48;;;;;;;37.13;35.20;;;;;;;;;;5065604;28;20059;-47
2022/04/22 12:53:48;;;;;;;19.65;18.55;;;;;;;;;;5074816;28;20020;-47
2022/04/22 12:56:14;;;;;;;21.23;19.88;;;;;;;;;;5074578;28;20063;-46
2022/04/22 12:58:54;;;;;;;20.17;19.08;;;;;;;;;;5075411;28;20052;-47
2022/04/22 13:01:27;;;;;;;18.85;17.77;;;;;;;;;;5070892;28;20123;-46
2022/04/22 13:03:53;;;;;;;17.23;16.23;;;;;;;;;;5070126;28;20050;-45
2022/04/22 13:06:41;;;;;;;20.13;19.02;;;;;;;;;;5071251;28;20357;-47
2022/04/22 13:09:09;;;;;;;20.90;19.70;;;;;;;;;;5074867;28;20401;-45
2022/04/22 13:11:34;;;;;;;18.58;17.58;;;;;;;;;;5073258;28;20473;-47
2022/04/22 13:14:00;;;;;;;21.27;20.10;;;;;;;;;;5072253;28;20082;-46
2022/04/22 13:16:26;;;;;;;20.65;19.45;;;;;;;;;;5072871;28;20036;-47
2022/04/22 13:18:51;;;;;;;19.48;18.38;;;;;;;;;;5072859;28;20032;-47
2022/04/22 13:21:17;;;;;;;23.00;21.70;;;;;;;;;;5073911;28;20047;-46
2022/04/22 13:23:42;;;;;;;15.35;14.45;;;;;;;;;;5073080;28;20031;-45
2022/04/22 13:26:07;;;;;;;25.58;24.23;;;;;;;;;;5073414;28;20028;-46
2022/04/22 13:28:33;;;;;;;21.00;19.85;;;;;;;;;;5070756;28;20281;-46
2022/04/22 13:30:58;;;;;;;21.45;20.25;;;;;;;;;;5071702;28;20097;-46
2022/04/22 13:33:24;;;;;;;23.58;22.27;;;;;;;;;;5073100;28;20115;-46
2022/04/22 13:35:49;;;;;;;16.85;15.95;;;;;;;;;;5074469;28;20028;-45
2022/04/22 13:38:15;;;;;;;19.85;18.75;;;;;;;;;;5074002;28;20048;-47
2022/04/22 13:40:40;;;;;;;23.77;22.50;;;;;;;;;;5070904;28;20036;-46
2022/04/22 13:43:06;;;;;;;23.65;22.38;;;;;;;;;;5074540;28;20028;-45
2022/04/22 13:53:43;;;;;;;25.27;23.92;;;;;;;;;;5070189;28;20039;-47
2022/04/22 13:56:08;;;;;;;17.88;16.88;;;;;;;;;;5071679;28;20040;-46
2022/04/22 13:58:36;;;;;;;23.73;22.42;;;;;;;;;;5071018;28;20036;-46
2022/04/22 14:01:03;;;;;;;17.75;16.75;;;;;;;;;;5072712;28;20352;-47
2022/04/22 14:03:29;;;;;;;25.45;24.05;;;;;;;;;;5074942;28;20773;-46
2022/04/22 14:05:55;;;;;;;26.40;24.90;;;;;;;;;;5066157;28;20347;-46
2022/04/22 14:08:20;;;;;;;19.00;17.90;;;;;;;;;;5071852;28;20053;-55
2022/04/22 14:10:46;;;;;;;14.52;13.73;;;;;;;;;;5073705;28;20043;-46
2022/04/22 14:13:13;;;;;;;17.25;16.25;;;;;;;;;;5073722;28;20536;-56
2022/04/22 14:15:39;;;;;;;17.20;16.23;;;;;;;;;;5070354;28;20024;-46
2022/04/22 14:18:05;;;;;;;15.73;14.82;;;;;;;;;;5074126;28;20092;-47
2022/04/22 14:20:30;;;;;;;20.45;19.33;;;;;;;;;;5074358;28;20031;-56
2022/04/22 14:22:55;;;;;;;14.48;13.57;;;;;;;;;;5071166;28;20500;-54
2022/04/22 14:25:21;;;;;;;18.25;17.25;;;;;;;;;;5074682;28;20028;-54
2022/04/22 14:27:46;;;;;;;14.50;13.68;;;;;;;;;;5073186;28;20090;-51
2022/04/22 14:30:12;;;;;;;16.75;15.82;;;;;;;;;;5068131;28;20051;-53
2022/04/22 14:32:37;;;;;;;16.45;15.50;;;;;;;;;;5069845;28;20152;-54
2022/04/22 14:35:04;;;;;;;19.75;18.65;;;;;;;;;;5073352;28;20213;-45
2022/04/22 14:37:29;;;;;;;18.88;17.83;;;;;;;;;;5071788;28;20036;-55
2022/04/22 14:39:55;;;;;;;16.27;15.32;;;;;;;;;;5070818;28;20073;-56
2022/04/22 14:42:21;;;;;;;18.30;17.30;;;;;;;;;;5071444;28;20036;-53
2022/04/22 14:44:47;;;;;;;17.15;16.15;;;;;;;;;;5071776;28;20941;-54
2022/04/22 14:47:14;;;;;;;19.10;18.05;;;;;;;;;;5071722;28;20047;-53
2022/04/22 14:49:40;;;;;;;18.20;17.10;;;;;;;;;;5070988;28;20043;-51
2022/04/22 14:52:06;;;;;;;16.13;15.23;;;;;;;;;;5072003;28;20029;-47
2022/04/22 14:54:32;;;;;;;19.52;18.42;;;;;;;;;;5071599;28;20032;-47
2022/04/22 14:56:58;;;;;;;15.68;14.77;;;;;;;;;;5068615;28;20031;-47
2022/04/22 14:59:24;;;;;;;23.20;21.90;;;;;;;;;;5069414;28;20589;-46
2022/04/22 15:01:49;;;;;;;20.55;19.45;;;;;;;;;;5070968;28;20032;-46
2022/04/22 15:04:14;;;;;;;19.48;18.27;;;;;;;;;;5072263;28;20040;-45
2022/04/22 15:06:40;;;;;;;20.88;19.58;;;;;;;;;;5068167;28;20127;-46
2022/04/22 15:09:06;;;;;;;19.60;18.50;;;;;;;;;;5067856;28;20497;-47
2022/04/22 15:11:32;;;;;;;15.30;14.38;;;;;;;;;;5072314;28;20172;-48
2022/04/22 15:14:02;;;;;;;16.65;15.73;;;;;;;;;;5070080;28;20028;-47
2022/04/22 15:16:29;;;;;;;28.67;27.17;;;;;;;;;;5072259;28;20034;-47
2022/04/22 15:24:23;;;;;;;29.05;27.55;;;;;;;;;;5072116;28;20087;-47
2022/04/22 15:26:51;;;;;;;31.98;30.25;;;;;;;;;;5071682;28;20442;-47
2022/04/22 15:29:16;;;;;;;41.65;39.42;;;;;;;;;;5071774;28;20039;-47
2022/04/22 15:31:42;;;;;;;53.38;50.67;;;;;;;;;;5071928;28;20032;-48
2022/04/22 15:34:08;;;;;;;53.65;50.90;;;;;;;;;;5069316;28;20040;-49
2022/04/22 15:36:34;;;;;;;58.00;55.00;;;;;;;;;;5073486;28;20035;-45
2022/04/22 15:39:02;;;;;;;47.97;45.53;;;;;;;;;;5068416;28;20037;-46
2022/04/22 15:41:29;;;;;;;49.97;47.42;;;;;;;;;;5071862;28;20085;-46
2022/04/22 15:43:55;;;;;;;80.32;76.03;;;;;;;;;;5070414;28;20032;-46
2022/04/22 15:46:21;;;;;;;49.45;46.95;;;;;;;;;;5071592;28;20341;-48
2022/04/22 15:48:47;;;;;;;46.47;44.03;;;;;;;;;;5070464;28;20059;-49